CCGS Amundsen — CGDT — position and weather

sailwx.info

Track history (hours):
 
Tides and Currents Weather Stations Pressure Air Temp Water Temp Dewpoint Dewpoint Depression Visibility Wind Speed Wind Dir Waves Ship Positions

Oceanographic research ship CCGS Amundsen (Canada)

Detailed information on ship capabilities available from ARCUS's ALIAS (Arctic Logistics Information and Support) project.

Last reported at 2018-Feb-23 13:00 UTC. Time now 2018-Feb-23 14:28 UTC.
Position N 49°30' W 066°12'.

Length 98.3 m; beam 19.5 m; draft 7.3 m.

Type: SAR. MMSI: 316050000.

Wind from 230 at 16 knots

Barometer 1037.7 mb
Air temperature -8.8 ° C
Dewpoint -15.0 ° C
Water temperature -0.8 ° C

Date/timePositionNaut miles runAvg speedWind from/ knotsBaromVisibWave heightAir tempDewpointWater temp
2018-Feb-23 13:00N 49°30' W 066°12'0 0.0 230 / 161037.7 -8.8-15.0-0.8
2018-Feb-23 12:00N 49°30' W 066°12'0 0.0 250 / 141037.8 -9.3-15.9-0.8
2018-Feb-23 11:00N 49°30' W 066°12'0 0.0 250 / 121037.9 -9.6-15.9-0.9
2018-Feb-23 10:00N 49°30' W 066°12'1211.7 280 / 131037.8 -9.7-16.8-1.0
2018-Feb-23 09:00N 49°30' W 065°54'8 7.8 290 / 171037.8 -9.7-16.7-1.0
2018-Feb-23 08:00N 49°30' W 065°42'8 7.8 300 / 211037.4 -9.4-15.8-1.0
2018-Feb-23 07:00N 49°30' W 065°30'1313.2 290 / 251037.2 -8.6-15.4-1.0
2018-Feb-23 06:00N 49°24' W 065°12'8 7.8 290 / 241036.7 -8.5-14.9-1.0
2018-Feb-23 05:00N 49°24' W 065°00'8 7.8 290 / 271035.8 -8.5-14.3-1.0
2018-Feb-23 04:00N 49°24' W 064°48'8 7.8 300 / 281035.1 -8.0-14.3-1.0
2018-Feb-23 03:00N 49°24' W 064°36'7 7.2 300 / 261034.9 -7.6-14.2-1.0
2018-Feb-23 02:00N 49°30' W 064°30'6 6.0 330 / 161034.3 -7.4-15.2-1.0
2018-Feb-23 01:00N 49°36' W 064°30'7 7.1 320 / 211033.8 -7.9-16.2-1.0
2018-Feb-23 00:00N 49°42' W 064°24'7 7.1 290 / 241033.1 -7.9-14.7-0.9
2018-Feb-22 23:00N 49°36' W 064°18'1414.3 270 / 301032.4 -8.6-12.6-1.0
2018-Feb-22 22:00N 49°24' W 064°06'1414.3 290 / 291032.2 -9.7-14.0-1.0
2018-Feb-22 21:00N 49°12' W 063°54'10 9.9 300 / 321030.9 -9.9-13.7-1.0
2018-Feb-22 20:00N 49°06' W 063°42'1312.6 300 / 331031.1 -9.8-13.4-0.9
2018-Feb-22 19:00N 48°54' W 063°36'0 0.0 310 / 251033.4 -10.8-13.9-0.9
2018-Feb-22 18:00N 48°54' W 063°36'0 0.0 310 / 271032.7 -11.4-14.6-0.9
2018-Feb-22 16:00N 48°54' W 063°36'0 0.0 310 / 301033.6 -11.5-15.3-0.9
2018-Feb-22 15:00N 48°54' W 063°36'4 3.9 310 / 301033.2 -12.4-16.5-0.9
2018-Feb-22 14:00N 48°54' W 063°30'1313.3 320 / 331032.4 -11.9-16.4-1.0
2018-Feb-22 13:00N 48°48' W 063°12'1615.8 320 / 301032.6 -11.7-16.8-1.0
2018-Feb-22 12:00N 48°48' W 062°48'10 9.9 310 / 341030.7 -11.5-16.0-1.0
2018-Feb-22 11:00N 48°42' W 062°36'1313.3 310 / 311029.8 -11.7-17.2-1.0
2018-Feb-22 10:00N 48°36' W 062°18'1615.9 320 / 331027.9 -11.0-16.3-1.0
2018-Feb-22 09:00N 48°36' W 061°54'1211.9 310 / 321026.5 -10.8-16.5-1.0
2018-Feb-22 08:00N 48°36' W 062°12'10 9.9 310 / 331024.8 -10.5-15.6-1.0
2018-Feb-22 07:00N 48°42' W 062°24'7 7.2 310 / 331022.8 -9.5-14.4-1.0
2018-Feb-22 06:00N 48°48' W 062°30'4 4.0 290 / 401019.4 -9.4-14.1-1.0
2018-Feb-22 05:00N 48°48' W 062°36'4 4.0 290 / 441016.6 -7.9-13.0-1.0
2018-Feb-22 04:00N 48°48' W 062°42'7 7.2 290 / 401015.4 -6.1-12.5-1.0
2018-Feb-22 03:00N 48°42' W 062°48'4 4.0 280 / 421012.4 -3.4-8.2-1.0
2018-Feb-22 02:00N 48°42' W 062°54'0 0.0 290 / 451009.5 -0.2-4.1-0.9
2018-Feb-22 01:00N 48°42' W 062°54'10 9.9 270 / 141009.7 -2.1-2.7-0.9
2018-Feb-22 00:00N 48°36' W 063°06'4 4.0 250 / 91008.4 -2.2-2.7-0.9
2018-Feb-21 23:00N 48°36' W 063°12'1414.4 280 / 151008.5 -1.7-2.3-0.9
2018-Feb-21 22:00N 48°48' W 063°24'6 3.0 240 / 141007.4 -2.1-2.6-0.9
2018-Feb-21 20:00N 48°54' W 063°24'1313.3 200 / 151007.1 -2.6-3.1-0.9
2018-Feb-21 19:00N 48°48' W 063°06'1211.9 140 / 81008.2 -2.8-3.0-0.9
2018-Feb-21 18:00N 48°48' W 062°48'4 4.0 120 / 61010.1 -2.6-2.8-0.9
2018-Feb-21 17:00N 48°48' W 062°42'0 0.0 230 / 41012.0 -2.8-3.0-0.8
2018-Feb-21 16:00N 48°48' W 062°42'4 4.0 210 / 51013.7 -2.6-2.9-0.8
2018-Feb-21 15:00N 48°48' W 062°48'0 0.0 160 / 121014.9 -3.8-4.1-0.8
2018-Feb-21 14:00N 48°48' W 062°48'0 0.0 140 / 131017.5 -4.8-5.4-0.9
2018-Feb-21 13:00N 48°48' W 062°48'0 0.0 130 / 181019.2 -6.1-7.0-0.9
2018-Feb-21 12:00N 48°48' W 062°48'0 0.0 120 / 231021.2 -6.6-8.1-0.9
2018-Feb-21 11:00N 48°48' W 062°48'6 6.0 110 / 221023.8 -7.2-8.5-0.9
2018-Feb-21 10:00N 48°42' W 062°48'8 7.9 100 / 211026.5 -6.9-10.2-1.0
2018-Feb-21 09:00N 48°42' W 062°36'10 9.9 090 / 151028.6 -7.2-10.1-1.0
2018-Feb-21 08:00N 48°36' W 062°24'8 7.9 090 / 141029.8 -6.8-10.6-1.0
2018-Feb-21 07:00N 48°36' W 062°12'1010.0 100 / 111030.8 -6.4-11.0-1.0
2018-Feb-21 06:00N 48°30' W 062°00'8 8.0 090 / 121031.8 -6.3-11.0-1.0
2018-Feb-21 05:00N 48°30' W 061°48'1010.0 100 / 111032.8 -6.2-10.8-1.0
2018-Feb-21 04:00N 48°24' W 061°36'4 4.0 080 / 111033.6 -6.1-10.5-0.9
2018-Feb-21 03:00N 48°24' W 061°30'1010.0 090 / 101033.1 -6.1-10.7-0.9
2018-Feb-21 02:00N 48°18' W 061°18'1010.0 090 / 101033.1 -6.0-10.6-0.9
2018-Feb-21 01:00N 48°12' W 061°06'8 8.0 080 / 121032.8 -6.1-10.4-0.9
2018-Feb-21 00:00N 48°12' W 060°54'7 7.2 060 / 181032.7 -5.8-10.1-0.8
2018-Feb-20 23:00N 48°06' W 060°48'8 8.0 060 / 121032.5 -5.6-9.4-0.8
2018-Feb-20 22:00N 48°06' W 060°36'0 0.0 030 / 181032.2 -5.7-9.2-0.7
2018-Feb-20 21:00N 48°06' W 060°36'0 0.0 030 / 201031.0 -4.7-8.1-0.7
2018-Feb-20 20:00N 48°06' W 060°36'0 0.0 030 / 181030.2 -5.0-8.1-0.7
2018-Feb-20 19:00N 48°06' W 060°36'0 0.0 030 / 201029.1 -3.5-6.2-0.7
2018-Feb-20 18:00N 48°06' W 060°36'0 0.0 020 / 141028.1 -1.1-3.7-0.7
2018-Feb-20 17:00N 48°06' W 060°36'0 0.0 010 / 161027.4 -2.0-3.7-0.7
2018-Feb-20 16:00N 48°06' W 060°36'4 4.0 010 / 161027.5 -1.0-3.0-0.7
2018-Feb-20 15:00N 48°06' W 060°30'0 0.0 340 / 101027.2 -1.3-2.4-0.6
2018-Feb-20 14:00N 48°06' W 060°30'0 0.0 300 / 71027.1 -1.6-2.4-0.7
2018-Feb-20 13:00N 48°06' W 060°30'4 4.0 270 / 71026.7 -1.5-2.2-0.7
2018-Feb-20 12:00N 48°06' W 060°36'0 0.0 250 / 61026.3 -1.5-2.2-0.7
2018-Feb-20 11:00N 48°06' W 060°36'1312.7 250 / 111025.5 -1.5-2.2-0.8
2018-Feb-20 10:00N 47°54' W 060°42'1312.7 240 / 151025.4 -1.1-2.2-0.9
2018-Feb-20 09:00N 47°42' W 060°48'1414.5 220 / 151025.3 -0.5-2.3-1.0
2018-Feb-20 08:00N 47°30' W 061°00'1010.1 210 / 171025.7 -0.1-2.1-1.0
2018-Feb-20 07:00N 47°24' W 061°12'1010.1 210 / 171025.7 -0.3-2.0-1.0
2018-Feb-20 06:00N 47°18' W 061°24'1717.4 230 / 181026.4 -0.2-2.0-0.9
2018-Feb-20 05:00N 47°12' W 061°48'1413.6 210 / 191026.1 -0.9-2.5-1.0
2018-Feb-20 04:00N 47°06' W 062°06'1514.5 190 / 231025.4 -0.8-2.8-1.0
2018-Feb-20 03:00N 47°18' W 062°18'1312.7 200 / 241025.4 -0.6-2.6-1.0
2018-Feb-20 02:00N 47°30' W 062°24'1414.5 200 / 301024.5 -0.5-2.9-1.0
2018-Feb-20 01:00N 47°42' W 062°36'1010.1 200 / 221025.1 -1.2-3.6-1.0
2018-Feb-20 00:00N 47°48' W 062°48'1312.7 200 / 201025.2 -2.0-4.1-1.0
2018-Feb-19 23:00N 48°00' W 062°54'1212.0 200 / 251024.7 -2.1-4.8-1.0
2018-Feb-19 22:00N 48°12' W 062°54'1312.6 190 / 241024.8 -2.4-5.6-1.0
2018-Feb-19 21:00N 48°24' W 063°00'1312.6 190 / 231025.0 -2.5-6.0-1.0
2018-Feb-19 20:00N 48°36' W 063°06'7 7.2 200 / 251025.4 -2.6-5.6-1.0
2018-Feb-19 19:00N 48°42' W 063°12'7 7.2 190 / 211026.4 -2.6-6.1-1.0
2018-Feb-19 18:00N 48°48' W 063°18'7 7.2 180 / 231027.1 -3.1-5.8-1.0
2018-Feb-19 17:00N 48°54' W 063°24'7 7.2 180 / 201028.1 -3.2-5.7-0.9
2018-Feb-19 16:00N 49°00' W 063°30'6 6.0 190 / 101029.9 -2.1-5.1-0.7
2018-Feb-19 15:00N 48°54' W 063°30'0 0.0 190 / 121031.0 -3.6-6.5-0.8
2018-Feb-19 14:00N 48°54' W 063°30'4 3.9 200 / 121031.8 -4.7-7.1-0.8
2018-Feb-19 13:00N 48°54' W 063°36'0 0.0 200 / 91031.6 -4.4-7.1-0.8
2018-Feb-19 12:00N 48°54' W 063°36'0 0.0 230 / 91031.4 -4.3-7.3-0.8
2018-Feb-19 11:00N 48°54' W 063°36'4 3.9 240 / 91030.4 -4.4-7.5-0.9
2018-Feb-19 10:00N 48°54' W 063°42'10 9.9 250 / 81030.3 -4.0-7.9-1.0
2018-Feb-19 09:00N 49°00' W 063°54'10 9.9 220 / 71029.8 -3.8-7.7-1.0
2018-Feb-19 08:00N 49°06' W 064°06'1313.2 240 / 81029.2 -3.8-7.0-0.9
2018-Feb-19 07:00N 49°12' W 064°24'8 7.8 270 / 91028.4 -3.2-7.1-0.9
2018-Feb-19 06:00N 49°12' W 064°36'10 9.9 270 / 81027.5 -2.8-6.8-0.9
2018-Feb-19 05:00N 49°18' W 064°48'0 0.0 290 / 51027.1 -2.4-6.7-0.8
2018-Feb-19 04:00N 49°18' W 064°48'4 3.9 280 / 81026.8 -2.4-6.7-0.7
2018-Feb-19 03:00N 49°18' W 064°54'0 0.0 270 / 41026.1 -2.7-6.6-0.7
2018-Feb-19 02:00N 49°18' W 064°54'0 0.0 260 / 111024.5 -3.0-6.6-0.8
2018-Feb-19 01:00N 49°18' W 064°54'4 3.9 250 / 111023.8 -3.2-6.0-0.8
2018-Feb-19 00:00N 49°18' W 065°00'6 6.0 280 / 121022.2 -2.1-5.1-0.8
2018-Feb-18 23:00N 49°24' W 065°00'6 6.0 230 / 41021.5 -3.4-6.0-0.8
2018-Feb-18 22:00N 49°30' W 065°00'4 3.9 250 / 41020.5 -4.1-6.3-0.7
2018-Feb-18 21:00N 49°30' W 065°06'0 0.0 290 / 41019.8 -3.7-6.2-0.7
2018-Feb-18 19:00N 49°30' W 065°06'0 0.0 290 / 71017.9 -4.0-8.8
2018-Feb-18 18:00N 49°30' W 065°06'0 0.0 300 / 41017.3 -4.1-7.9-0.7
2018-Feb-18 17:00N 49°30' W 065°06'0 0.0 280 / 51017.1 -4.0-9.1-0.7
2018-Feb-18 16:00N 49°30' W 065°06'0 0.0 220 / 61017.1 -4.2-8.9-0.8
2018-Feb-18 15:00N 49°30' W 065°06'0 0.0 210 / 141016.6 -5.3-10.3-0.8
2018-Feb-18 14:00N 49°30' W 065°06'0 0.0 200 / 141016.4 -5.4-10.4-0.8
2018-Feb-18 13:00N 49°30' W 065°06'0 0.0 200 / 141016.6 -5.5-11.3-0.9
2018-Feb-18 12:00N 49°30' W 065°06'4 3.9 200 / 131016.3 -6.0-11.8-0.9
2018-Feb-18 11:00N 49°30' W 065°12'6 6.0 170 / 151016.2 -6.4-13.0-0.9
2018-Feb-18 10:00N 49°24' W 065°12'8 7.8 190 / 111016.7 -6.0-13.8-1.0
2018-Feb-18 09:00N 49°24' W 065°24'8 7.8 180 / 191016.4 -5.3-12.8-1.0
2018-Feb-18 08:00N 49°24' W 065°36'8 7.8 180 / 171016.7 -5.5-13.5-1.0
2018-Feb-18 07:00N 49°24' W 065°48'8 7.8 160 / 111017.4 -5.1-12.8-1.0
2018-Feb-18 06:00N 49°24' W 066°00'1313.2 200 / 131018.1 -4.8-13.7-0.9
2018-Feb-18 05:00N 49°18' W 066°18'8 7.8 200 / 171018.1 -5.3-13.8-0.9
2018-Feb-18 04:00N 49°18' W 066°30'10 9.9 190 / 201019.2 -6.4-14.9-0.9
2018-Feb-18 03:00N 49°12' W 066°42'8 7.8 190 / 191020.6 -6.5-14.8-0.8
2018-Feb-18 02:00N 49°12' W 066°54'10 9.9 200 / 141021.4 -6.9-14.8-0.8
2018-Feb-18 01:00N 49°06' W 067°06'7 3.6 170 / 131021.9 -7.8-15.9-0.6
2018-Feb-17 23:00N 49°12' W 067°12'7 7.2 150 / 81023.1 -9.5-16.9-0.7
2018-Feb-17 22:00N 49°06' W 067°18'1313.2 170 / 81023.3 -9.3-15.6-0.7
2018-Feb-17 21:00N 49°00' W 067°36'0 0.0 220 / 101024.4 -8.1-14.7-0.7
2018-Feb-17 20:00N 49°00' W 067°36'0 0.0 220 / 81024.9 -9.2-14.6-0.7
2018-Feb-17 19:00N 49°00' W 067°36'0 0.0 220 / 81025.2 -9.5-16.3-0.7
2018-Feb-17 18:00N 49°00' W 067°36'6 6.0 220 / 91026.2 -12.0-18.2-0.8
2018-Feb-17 17:00N 48°54' W 067°36'0 0.0 250 / 91026.4 -12.4-19.4-0.7
2018-Feb-17 16:00N 48°54' W 067°36'0 0.0 280 / 71026.8 -13.3-19.6-0.8
2018-Feb-17 15:00N 48°54' W 067°36'6 6.0 290 / 121027.2 -14.8-21.2
2018-Feb-17 14:00N 49°00' W 067°36'0 0.0 290 / 181026.9 -15.3-22.1
2018-Feb-17 13:00N 49°00' W 067°36'0 0.0 290 / 171025.9 -15.3-21.9
2018-Feb-17 12:00N 49°00' W 067°36'0 0.0 290 / 181024.6 -16.1-22.7
2018-Feb-17 11:00N 49°00' W 067°36'6 6.0 280 / 171023.3 -16.1-22.7-0.8
2018-Feb-17 10:00N 48°54' W 067°36'4 3.9 280 / 191022.6 -16.1-23.0-0.8
2018-Feb-17 09:00N 48°54' W 067°42'4 3.9 280 / 161021.3 -15.6-22.4-0.8
2018-Feb-17 08:00N 48°54' W 067°48'7 7.2 300 / 181019.9 -15.7-23.1-0.8
2018-Feb-17 07:00N 48°48' W 067°54'4 4.0 290 / 231018.8 -15.4-22.4-0.8
2018-Feb-17 06:00N 48°48' W 068°00'4 4.0 290 / 251017.3 -14.6-21.6-0.7
2018-Feb-17 05:00N 48°48' W 068°06'7 7.2 280 / 241016.0 -13.7-21.4-0.6
2018-Feb-17 04:00N 48°42' W 068°12'4 4.0 280 / 241014.8 -13.0-19.9-0.4
2018-Feb-17 03:00N 48°42' W 068°18'8 7.9 290 / 261013.2 -12.5-19.0-0.5
2018-Feb-17 02:00N 48°42' W 068°30'4 4.0 290 / 251012.2 -12.0-19.6-0.6
2018-Feb-17 01:00N 48°42' W 068°36'0 0.0 300 / 141010.7 -10.5-18.1-0.3
2018-Feb-17 00:00N 48°42' W 068°36'0 0.0 290 / 251008.4 -10.2-17.6-0.2
2018-Feb-16 23:00N 48°42' W 068°36'0 0.0 290 / 211006.7 -8.3-15.7-0.2
2018-Feb-16 22:00N 48°42' W 068°36'0 0.0 290 / 241005.0 -8.0-16.5-0.1
2018-Feb-16 21:00N 48°42' W 068°36'10 9.9 280 / 201004.0 -6.7-16.0-0.1
2018-Feb-16 20:00N 48°36' W 068°48'7 7.2 300 / 261002.9 -6.0-14.3 0.2
2018-Feb-16 19:00N 48°30' W 068°54'0 0.0 310 / 151001.7 -2.2-10.8 0.3
2018-Feb-16 18:00N 48°30' W 068°54'0 0.0 290 / 181001.8 -3.9-12.4
2018-Feb-16 17:00N 48°30' W 068°54'0 0.0 280 / 141001.2 -4.4-10.3 0.3
2018-Feb-16 16:00N 48°30' W 068°54'0 0.0 290 / 171001.2 -4.4-9.4 0.3
2018-Feb-16 15:00N 48°30' W 068°54'0 0.0 300 / 211001.0 -3.8-9.3 0.3
2018-Feb-16 13:00N 48°30' W 068°54'1716.9 290 / 261001.2 -2.4-7.4 0.5
2018-Feb-16 12:00N 48°18' W 069°12'1414.4 260 / 261001.0 -2.8-5.5 0.7
2018-Feb-16 11:00N 48°06' W 069°24'1312.7 270 / 26999.8 -1.7-5.3 0.8
2018-Feb-16 10:00N 47°54' W 069°30'0 0.0 300 / 9999.9 0.8-3.4
2018-Feb-16 09:00N 47°54' W 069°30'0 0.0 290 / 18998.6 1.3-2.8
2018-Feb-16 08:00N 47°54' W 069°30'0 0.0 310 / 9998.0 1.2-0.8
2018-Feb-16 07:00N 47°54' W 069°30'0 0.0 210 / 16996.7 0.1-0.3
2018-Feb-16 06:00N 47°54' W 069°30'0 0.0 200 / 11996.5 -0.3-0.4
2018-Feb-16 05:00N 47°54' W 069°30'0 0.0 220 / 7996.7 -1.1-1.2
2018-Feb-16 04:00N 47°54' W 069°30'0 0.0 220 / 6996.5 -1.4-1.5
2018-Feb-16 03:00N 47°54' W 069°30'0 0.0 150 / 2996.8 -0.4-0.5
2018-Feb-16 02:00N 47°54' W 069°30'0 0.0 010 / 4997.2 -1.0-1.1
2018-Feb-16 01:00N 47°54' W 069°30'0 0.0 360 / 7997.7 -0.9-1.1
2018-Feb-16 00:00N 47°54' W 069°30'0 0.0 070 / 2998.5 -0.1-0.2
2018-Feb-15 23:00N 47°54' W 069°30'0 0.0 050 / 2999.2 -0.1-0.3
2018-Feb-15 22:00N 47°54' W 069°30'0 0.0 050 / 8999.8 -0.1-0.5
2018-Feb-15 21:00N 47°54' W 069°30'0 0.0 050 / 81000.5 0.1-0.6
2018-Feb-15 20:00N 47°54' W 069°30'0 0.0 110 / 21001.7 0.5-1.0
2018-Feb-15 19:00N 47°54' W 069°30'0 0.0 200 / 81002.4 -0.3-1.8
2018-Feb-15 18:00N 47°54' W 069°30'0 0.0 220 / 101003.8 -0.4-1.7
2018-Feb-15 17:00N 47°54' W 069°30'0 0.0 220 / 101005.0 -0.1-1.7
2018-Feb-15 16:00N 47°54' W 069°30'0 0.0 210 / 91007.2 -0.2-1.8
2018-Feb-15 15:00N 47°54' W 069°30'0 0.0 200 / 111008.1 -0.5-2.5
2018-Feb-15 14:00N 47°54' W 069°30'0 0.0 210 / 121008.4 -0.5-2.3
2018-Feb-15 13:00N 47°54' W 069°30'0 0.0 200 / 101008.7 -0.5-2.3
2018-Feb-15 12:00N 47°54' W 069°30'0 0.0 200 / 111008.9 -0.7-2.3
2018-Feb-15 11:00N 47°54' W 069°30'0 0.0 200 / 71009.2 -0.3-1.7
2018-Feb-15 10:00N 47°54' W 069°30'0 0.0 230 / 21009.4 -0.0-1.4
2018-Feb-15 09:00N 47°54' W 069°30'0 0.0 230 / 31009.5 0.1-1.2
2018-Feb-15 08:00N 47°54' W 069°30'0 0.0 210 / 51008.9 0.3-1.2
2018-Feb-15 07:00N 47°54' W 069°30'0 0.0 210 / 61009.5 0.6-1.2
2018-Feb-15 06:00N 47°54' W 069°30'0 0.0 210 / 51009.9 0.1-1.3
2018-Feb-15 05:00N 47°54' W 069°30'1212.0 220 / 121009.6 0.2-1.2-0.2
2018-Feb-15 04:00N 48°06' W 069°30'1010.0 210 / 111009.9 -0.5-2.2-0.1
2018-Feb-15 03:00N 48°12' W 069°18'1717.0 220 / 101009.6 -0.8-2.7-0.0
2018-Feb-15 02:00N 48°24' W 069°00'1414.4 200 / 121009.9 -0.4-2.8 0.1
2018-Feb-15 01:00N 48°36' W 068°48'10 9.9 220 / 131010.0 -0.4-3.2-0.1
2018-Feb-15 00:00N 48°42' W 068°36'4 2.0 240 / 171009.7 -0.6-2.4
2018-Feb-14 22:00N 48°42' W 068°30'4 4.0 240 / 291008.0 -0.4-4.3-0.4
2018-Feb-14 21:00N 48°42' W 068°24'0 0.0 240 / 281008.6 -0.9-5.3-0.8
2018-Feb-14 20:00N 48°42' W 068°24'0 0.0 230 / 251009.5 -1.7-6.1-0.8
2018-Feb-14 19:00N 48°42' W 068°24'0 0.0 230 / 251010.0 -1.8-5.8-0.8
2018-Feb-14 18:00N 48°42' W 068°24'0 0.0 240 / 271010.4 -2.3-6.3
2018-Feb-14 17:00N 48°42' W 068°24'0 0.0 230 / 291011.4 -2.7-6.9-0.8
2018-Feb-14 16:00N 48°42' W 068°24'4 4.0 230 / 271012.1 -2.8-7.1-0.8
2018-Feb-14 15:00N 48°42' W 068°30'0 0.0 230 / 321012.5 -2.7-8.2-0.8
2018-Feb-14 14:00N 48°42' W 068°30'0 0.0 230 / 331013.1 -2.8-9.2-0.8
2018-Feb-14 13:00N 48°42' W 068°30'4 4.0 210 / 291014.2 -3.2-10.6-0.8
2018-Feb-14 12:00N 48°42' W 068°36'0 0.0 230 / 241013.6 -3.4-10.4-0.8
2018-Feb-14 11:00N 48°42' W 068°36'7 7.2 210 / 361014.1 -3.6-11.5-0.7
2018-Feb-14 10:00N 48°36' W 068°42'0 0.0 210 / 321015.3 -4.5-11.8-0.7
2018-Feb-14 09:00N 48°36' W 068°42'0 0.0 200 / 261016.1 -4.6-11.6-0.7
2018-Feb-14 08:00N 48°36' W 068°42'7 7.2 220 / 371017.4 -5.3-12.1-0.7
2018-Feb-14 07:00N 48°42' W 068°36'8 7.9 210 / 341019.7 -5.5-11.9-0.9
2018-Feb-14 06:00N 48°42' W 068°24'1313.3 190 / 261021.3 -8.3-14.6-0.8
2018-Feb-14 05:00N 48°48' W 068°06'1313.3 210 / 311022.2 -8.0-14.8-0.8
2018-Feb-14 04:00N 48°54' W 067°48'8 7.9 200 / 231025.4 -8.7-14.9-0.9
2018-Feb-14 03:00N 48°54' W 067°36'0 0.0 180 / 141028.2 -11.6-18.2-0.9
2018-Feb-14 02:00N 48°54' W 067°36'0 0.0 190 / 141030.0 -11.4-19.2-0.9
2018-Feb-14 01:00N 48°54' W 067°36'0 0.0 200 / 121031.6 -12.0-19.7-1.1
2018-Feb-14 00:00N 48°54' W 067°36'4 3.9 180 / 151031.7 -12.2-18.5-1.0
2018-Feb-13 23:00N 48°54' W 067°42'7 7.2 210 / 231032.7 -10.3-17.0-0.9
2018-Feb-13 22:00N 49°00' W 067°36'0 0.0 200 / 211034.0 -11.5-17.4-0.8
2018-Feb-13 21:00N 49°00' W 067°36'0 0.0 200 / 211034.7 -11.8-18.0-0.9
2018-Feb-13 20:00N 49°00' W 067°36'1313.2 220 / 251035.1 -12.2-17.8-0.9
2018-Feb-13 19:00N 49°06' W 067°54'1414.4 240 / 131036.4 -12.5-18.8-0.9
2018-Feb-13 18:00N 48°54' W 067°42'4 3.9 230 / 191037.7 -14.5-20.9-1.0
2018-Feb-13 17:00N 48°54' W 067°36'6 6.0 230 / 161039.0 -15.2-21.1-0.9
2018-Feb-13 16:00N 48°48' W 067°36'6 6.0 280 / 111040.3 -15.1-21.7
2018-Feb-13 15:00N 48°54' W 067°36'4 3.9 280 / 141041.2 -16.4-22.2-1.0
2018-Feb-13 14:00N 48°54' W 067°42'10 9.9 270 / 151041.9 -16.1-22.3-1.0
2018-Feb-13 13:00N 48°48' W 067°54'   280 / 201041.5 -17.3-23.3-0.8
Track history (hours):
 
Tides and Currents Weather Stations Pressure Air Temp Water Temp Dewpoint Dewpoint Depression Visibility Wind Speed Wind Dir Waves Ship Positions

Oceanographic research ship CCGS Amundsen (Canada)

Detailed information on ship capabilities available from ARCUS's ALIAS (Arctic Logistics Information and Support) project.

Last reported at 2018-Feb-23 13:00 UTC. Time now 2018-Feb-23 14:28 UTC.
Position N 49°30' W 066°12'.

Length 98.3 m; beam 19.5 m; draft 7.3 m.

Type: SAR. MMSI: 316050000.

Wind from 230 at 16 knots

Barometer 1037.7 mb
Air temperature -8.8 ° C
Dewpoint -15.0 ° C
Water temperature -0.8 ° C

Date/timePositionNaut miles runAvg speedWind from/ knotsBaromVisibWave heightAir tempDewpointWater temp
2018-Feb-23 13:00N 49°30' W 066°12'0 0.0 230 / 161037.7 -8.8-15.0-0.8
2018-Feb-23 12:00N 49°30' W 066°12'0 0.0 250 / 141037.8 -9.3-15.9-0.8
2018-Feb-23 11:00N 49°30' W 066°12'0 0.0 250 / 121037.9 -9.6-15.9-0.9
2018-Feb-23 10:00N 49°30' W 066°12'1211.7 280 / 131037.8 -9.7-16.8-1.0
2018-Feb-23 09:00N 49°30' W 065°54'8 7.8 290 / 171037.8 -9.7-16.7-1.0
2018-Feb-23 08:00N 49°30' W 065°42'8 7.8 300 / 211037.4 -9.4-15.8-1.0
2018-Feb-23 07:00N 49°30' W 065°30'1313.2 290 / 251037.2 -8.6-15.4-1.0
2018-Feb-23 06:00N 49°24' W 065°12'8 7.8 290 / 241036.7 -8.5-14.9-1.0
2018-Feb-23 05:00N 49°24' W 065°00'8 7.8 290 / 271035.8 -8.5-14.3-1.0
2018-Feb-23 04:00N 49°24' W 064°48'8 7.8 300 / 281035.1 -8.0-14.3-1.0
2018-Feb-23 03:00N 49°24' W 064°36'7 7.2 300 / 261034.9 -7.6-14.2-1.0
2018-Feb-23 02:00N 49°30' W 064°30'6 6.0 330 / 161034.3 -7.4-15.2-1.0
2018-Feb-23 01:00N 49°36' W 064°30'7 7.1 320 / 211033.8 -7.9-16.2-1.0
2018-Feb-23 00:00N 49°42' W 064°24'7 7.1 290 / 241033.1 -7.9-14.7-0.9
2018-Feb-22 23:00N 49°36' W 064°18'1414.3 270 / 301032.4 -8.6-12.6-1.0
2018-Feb-22 22:00N 49°24' W 064°06'1414.3 290 / 291032.2 -9.7-14.0-1.0
2018-Feb-22 21:00N 49°12' W 063°54'10 9.9 300 / 321030.9 -9.9-13.7-1.0
2018-Feb-22 20:00N 49°06' W 063°42'1312.6 300 / 331031.1 -9.8-13.4-0.9
2018-Feb-22 19:00N 48°54' W 063°36'0 0.0 310 / 251033.4 -10.8-13.9-0.9
2018-Feb-22 18:00N 48°54' W 063°36'0 0.0 310 / 271032.7 -11.4-14.6-0.9
2018-Feb-22 16:00N 48°54' W 063°36'0 0.0 310 / 301033.6 -11.5-15.3-0.9
2018-Feb-22 15:00N 48°54' W 063°36'4 3.9 310 / 301033.2 -12.4-16.5-0.9
2018-Feb-22 14:00N 48°54' W 063°30'1313.3 320 / 331032.4 -11.9-16.4-1.0
2018-Feb-22 13:00N 48°48' W 063°12'1615.8 320 / 301032.6 -11.7-16.8-1.0
2018-Feb-22 12:00N 48°48' W 062°48'10 9.9 310 / 341030.7 -11.5-16.0-1.0
2018-Feb-22 11:00N 48°42' W 062°36'1313.3 310 / 311029.8 -11.7-17.2-1.0
2018-Feb-22 10:00N 48°36' W 062°18'1615.9 320 / 331027.9 -11.0-16.3-1.0
2018-Feb-22 09:00N 48°36' W 061°54'1211.9 310 / 321026.5 -10.8-16.5-1.0
2018-Feb-22 08:00N 48°36' W 062°12'10 9.9 310 / 331024.8 -10.5-15.6-1.0
2018-Feb-22 07:00N 48°42' W 062°24'7 7.2 310 / 331022.8 -9.5-14.4-1.0
2018-Feb-22 06:00N 48°48' W 062°30'4 4.0 290 / 401019.4 -9.4-14.1-1.0
2018-Feb-22 05:00N 48°48' W 062°36'4 4.0 290 / 441016.6 -7.9-13.0-1.0
2018-Feb-22 04:00N 48°48' W 062°42'7 7.2 290 / 401015.4 -6.1-12.5-1.0
2018-Feb-22 03:00N 48°42' W 062°48'4 4.0 280 / 421012.4 -3.4-8.2-1.0
2018-Feb-22 02:00N 48°42' W 062°54'0 0.0 290 / 451009.5 -0.2-4.1-0.9
2018-Feb-22 01:00N 48°42' W 062°54'10 9.9 270 / 141009.7 -2.1-2.7-0.9
2018-Feb-22 00:00N 48°36' W 063°06'4 4.0 250 / 91008.4 -2.2-2.7-0.9
2018-Feb-21 23:00N 48°36' W 063°12'1414.4 280 / 151008.5 -1.7-2.3-0.9
2018-Feb-21 22:00N 48°48' W 063°24'6 3.0 240 / 141007.4 -2.1-2.6-0.9
2018-Feb-21 20:00N 48°54' W 063°24'1313.3 200 / 151007.1 -2.6-3.1-0.9
2018-Feb-21 19:00N 48°48' W 063°06'1211.9 140 / 81008.2 -2.8-3.0-0.9
2018-Feb-21 18:00N 48°48' W 062°48'4 4.0 120 / 61010.1 -2.6-2.8-0.9
2018-Feb-21 17:00N 48°48' W 062°42'0 0.0 230 / 41012.0 -2.8-3.0-0.8
2018-Feb-21 16:00N 48°48' W 062°42'4 4.0 210 / 51013.7 -2.6-2.9-0.8
2018-Feb-21 15:00N 48°48' W 062°48'0 0.0 160 / 121014.9 -3.8-4.1-0.8
2018-Feb-21 14:00N 48°48' W 062°48'0 0.0 140 / 131017.5 -4.8-5.4-0.9
2018-Feb-21 13:00N 48°48' W 062°48'0 0.0 130 / 181019.2 -6.1-7.0-0.9
2018-Feb-21 12:00N 48°48' W 062°48'0 0.0 120 / 231021.2 -6.6-8.1-0.9
2018-Feb-21 11:00N 48°48' W 062°48'6 6.0 110 / 221023.8 -7.2-8.5-0.9
2018-Feb-21 10:00N 48°42' W 062°48'8 7.9 100 / 211026.5 -6.9-10.2-1.0
2018-Feb-21 09:00N 48°42' W 062°36'10 9.9 090 / 151028.6 -7.2-10.1-1.0
2018-Feb-21 08:00N 48°36' W 062°24'8 7.9 090 / 141029.8 -6.8-10.6-1.0
2018-Feb-21 07:00N 48°36' W 062°12'1010.0 100 / 111030.8 -6.4-11.0-1.0
2018-Feb-21 06:00N 48°30' W 062°00'8 8.0 090 / 121031.8 -6.3-11.0-1.0
2018-Feb-21 05:00N 48°30' W 061°48'1010.0 100 / 111032.8 -6.2-10.8-1.0
2018-Feb-21 04:00N 48°24' W 061°36'4 4.0 080 / 111033.6 -6.1-10.5-0.9
2018-Feb-21 03:00N 48°24' W 061°30'1010.0 090 / 101033.1 -6.1-10.7-0.9
2018-Feb-21 02:00N 48°18' W 061°18'1010.0 090 / 101033.1 -6.0-10.6-0.9
2018-Feb-21 01:00N 48°12' W 061°06'8 8.0 080 / 121032.8 -6.1-10.4-0.9
2018-Feb-21 00:00N 48°12' W 060°54'7 7.2 060 / 181032.7 -5.8-10.1-0.8
2018-Feb-20 23:00N 48°06' W 060°48'8 8.0 060 / 121032.5 -5.6-9.4-0.8
2018-Feb-20 22:00N 48°06' W 060°36'0 0.0 030 / 181032.2 -5.7-9.2-0.7
2018-Feb-20 21:00N 48°06' W 060°36'0 0.0 030 / 201031.0 -4.7-8.1-0.7
2018-Feb-20 20:00N 48°06' W 060°36'0 0.0 030 / 181030.2 -5.0-8.1-0.7
2018-Feb-20 19:00N 48°06' W 060°36'0 0.0 030 / 201029.1 -3.5-6.2-0.7
2018-Feb-20 18:00N 48°06' W 060°36'0 0.0 020 / 141028.1 -1.1-3.7-0.7
2018-Feb-20 17:00N 48°06' W 060°36'0 0.0 010 / 161027.4 -2.0-3.7-0.7
2018-Feb-20 16:00N 48°06' W 060°36'4 4.0 010 / 161027.5 -1.0-3.0-0.7
2018-Feb-20 15:00N 48°06' W 060°30'0 0.0 340 / 101027.2 -1.3-2.4-0.6
2018-Feb-20 14:00N 48°06' W 060°30'0 0.0 300 / 71027.1 -1.6-2.4-0.7
2018-Feb-20 13:00N 48°06' W 060°30'4 4.0 270 / 71026.7 -1.5-2.2-0.7
2018-Feb-20 12:00N 48°06' W 060°36'0 0.0 250 / 61026.3 -1.5-2.2-0.7
2018-Feb-20 11:00N 48°06' W 060°36'1312.7 250 / 111025.5 -1.5-2.2-0.8
2018-Feb-20 10:00N 47°54' W 060°42'1312.7 240 / 151025.4 -1.1-2.2-0.9
2018-Feb-20 09:00N 47°42' W 060°48'1414.5 220 / 151025.3 -0.5-2.3-1.0
2018-Feb-20 08:00N 47°30' W 061°00'1010.1 210 / 171025.7 -0.1-2.1-1.0
2018-Feb-20 07:00N 47°24' W 061°12'1010.1 210 / 171025.7 -0.3-2.0-1.0
2018-Feb-20 06:00N 47°18' W 061°24'1717.4 230 / 181026.4 -0.2-2.0-0.9
2018-Feb-20 05:00N 47°12' W 061°48'1413.6 210 / 191026.1 -0.9-2.5-1.0
2018-Feb-20 04:00N 47°06' W 062°06'1514.5 190 / 231025.4 -0.8-2.8-1.0
2018-Feb-20 03:00N 47°18' W 062°18'1312.7 200 / 241025.4 -0.6-2.6-1.0
2018-Feb-20 02:00N 47°30' W 062°24'1414.5 200 / 301024.5 -0.5-2.9-1.0
2018-Feb-20 01:00N 47°42' W 062°36'1010.1 200 / 221025.1 -1.2-3.6-1.0
2018-Feb-20 00:00N 47°48' W 062°48'1312.7 200 / 201025.2 -2.0-4.1-1.0
2018-Feb-19 23:00N 48°00' W 062°54'1212.0 200 / 251024.7 -2.1-4.8-1.0
2018-Feb-19 22:00N 48°12' W 062°54'1312.6 190 / 241024.8 -2.4-5.6-1.0
2018-Feb-19 21:00N 48°24' W 063°00'1312.6 190 / 231025.0 -2.5-6.0-1.0
2018-Feb-19 20:00N 48°36' W 063°06'7 7.2 200 / 251025.4 -2.6-5.6-1.0
2018-Feb-19 19:00N 48°42' W 063°12'7 7.2 190 / 211026.4 -2.6-6.1-1.0
2018-Feb-19 18:00N 48°48' W 063°18'7 7.2 180 / 231027.1 -3.1-5.8-1.0
2018-Feb-19 17:00N 48°54' W 063°24'7 7.2 180 / 201028.1 -3.2-5.7-0.9
2018-Feb-19 16:00N 49°00' W 063°30'6 6.0 190 / 101029.9 -2.1-5.1-0.7
2018-Feb-19 15:00N 48°54' W 063°30'0 0.0 190 / 121031.0 -3.6-6.5-0.8
2018-Feb-19 14:00N 48°54' W 063°30'4 3.9 200 / 121031.8 -4.7-7.1-0.8
2018-Feb-19 13:00N 48°54' W 063°36'0 0.0 200 / 91031.6 -4.4-7.1-0.8
2018-Feb-19 12:00N 48°54' W 063°36'0 0.0 230 / 91031.4 -4.3-7.3-0.8
2018-Feb-19 11:00N 48°54' W 063°36'4 3.9 240 / 91030.4 -4.4-7.5-0.9
2018-Feb-19 10:00N 48°54' W 063°42'10 9.9 250 / 81030.3 -4.0-7.9-1.0
2018-Feb-19 09:00N 49°00' W 063°54'10 9.9 220 / 71029.8 -3.8-7.7-1.0
2018-Feb-19 08:00N 49°06' W 064°06'1313.2 240 / 81029.2 -3.8-7.0-0.9
2018-Feb-19 07:00N 49°12' W 064°24'8 7.8 270 / 91028.4 -3.2-7.1-0.9
2018-Feb-19 06:00N 49°12' W 064°36'10 9.9 270 / 81027.5 -2.8-6.8-0.9
2018-Feb-19 05:00N 49°18' W 064°48'0 0.0 290 / 51027.1 -2.4-6.7-0.8
2018-Feb-19 04:00N 49°18' W 064°48'4 3.9 280 / 81026.8 -2.4-6.7-0.7
2018-Feb-19 03:00N 49°18' W 064°54'0 0.0 270 / 41026.1 -2.7-6.6-0.7
2018-Feb-19 02:00N 49°18' W 064°54'0 0.0 260 / 111024.5 -3.0-6.6-0.8
2018-Feb-19 01:00N 49°18' W 064°54'4 3.9 250 / 111023.8 -3.2-6.0-0.8
2018-Feb-19 00:00N 49°18' W 065°00'6 6.0 280 / 121022.2 -2.1-5.1-0.8
2018-Feb-18 23:00N 49°24' W 065°00'6 6.0 230 / 41021.5 -3.4-6.0-0.8
2018-Feb-18 22:00N 49°30' W 065°00'4 3.9 250 / 41020.5 -4.1-6.3-0.7
2018-Feb-18 21:00N 49°30' W 065°06'0 0.0 290 / 41019.8 -3.7-6.2-0.7
2018-Feb-18 19:00N 49°30' W 065°06'0 0.0 290 / 71017.9 -4.0-8.8
2018-Feb-18 18:00N 49°30' W 065°06'0 0.0 300 / 41017.3 -4.1-7.9-0.7
2018-Feb-18 17:00N 49°30' W 065°06'0 0.0 280 / 51017.1 -4.0-9.1-0.7
2018-Feb-18 16:00N 49°30' W 065°06'0 0.0 220 / 61017.1 -4.2-8.9-0.8
2018-Feb-18 15:00N 49°30' W 065°06'0 0.0 210 / 141016.6 -5.3-10.3-0.8
2018-Feb-18 14:00N 49°30' W 065°06'0 0.0 200 / 141016.4 -5.4-10.4-0.8
2018-Feb-18 13:00N 49°30' W 065°06'0 0.0 200 / 141016.6 -5.5-11.3-0.9
2018-Feb-18 12:00N 49°30' W 065°06'4 3.9 200 / 131016.3 -6.0-11.8-0.9
2018-Feb-18 11:00N 49°30' W 065°12'6 6.0 170 / 151016.2 -6.4-13.0-0.9
2018-Feb-18 10:00N 49°24' W 065°12'8 7.8 190 / 111016.7 -6.0-13.8-1.0
2018-Feb-18 09:00N 49°24' W 065°24'8 7.8 180 / 191016.4 -5.3-12.8-1.0
2018-Feb-18 08:00N 49°24' W 065°36'8 7.8 180 / 171016.7 -5.5-13.5-1.0
2018-Feb-18 07:00N 49°24' W 065°48'8 7.8 160 / 111017.4 -5.1-12.8-1.0
2018-Feb-18 06:00N 49°24' W 066°00'1313.2 200 / 131018.1 -4.8-13.7-0.9
2018-Feb-18 05:00N 49°18' W 066°18'8 7.8 200 / 171018.1 -5.3-13.8-0.9
2018-Feb-18 04:00N 49°18' W 066°30'10 9.9 190 / 201019.2 -6.4-14.9-0.9
2018-Feb-18 03:00N 49°12' W 066°42'8 7.8 190 / 191020.6 -6.5-14.8-0.8
2018-Feb-18 02:00N 49°12' W 066°54'10 9.9 200 / 141021.4 -6.9-14.8-0.8
2018-Feb-18 01:00N 49°06' W 067°06'7 3.6 170 / 131021.9 -7.8-15.9-0.6
2018-Feb-17 23:00N 49°12' W 067°12'7 7.2 150 / 81023.1 -9.5-16.9-0.7
2018-Feb-17 22:00N 49°06' W 067°18'1313.2 170 / 81023.3 -9.3-15.6-0.7
2018-Feb-17 21:00N 49°00' W 067°36'0 0.0 220 / 101024.4 -8.1-14.7-0.7
2018-Feb-17 20:00N 49°00' W 067°36'0 0.0 220 / 81024.9 -9.2-14.6-0.7
2018-Feb-17 19:00N 49°00' W 067°36'0 0.0 220 / 81025.2 -9.5-16.3-0.7
2018-Feb-17 18:00N 49°00' W 067°36'6 6.0 220 / 91026.2 -12.0-18.2-0.8
2018-Feb-17 17:00N 48°54' W 067°36'0 0.0 250 / 91026.4 -12.4-19.4-0.7
2018-Feb-17 16:00N 48°54' W 067°36'0 0.0 280 / 71026.8 -13.3-19.6-0.8
2018-Feb-17 15:00N 48°54' W 067°36'6 6.0 290 / 121027.2 -14.8-21.2
2018-Feb-17 14:00N 49°00' W 067°36'0 0.0 290 / 181026.9 -15.3-22.1
2018-Feb-17 13:00N 49°00' W 067°36'0 0.0 290 / 171025.9 -15.3-21.9
2018-Feb-17 12:00N 49°00' W 067°36'0 0.0 290 / 181024.6 -16.1-22.7
2018-Feb-17 11:00N 49°00' W 067°36'6 6.0 280 / 171023.3 -16.1-22.7-0.8
2018-Feb-17 10:00N 48°54' W 067°36'4 3.9 280 / 191022.6 -16.1-23.0-0.8
2018-Feb-17 09:00N 48°54' W 067°42'4 3.9 280 / 161021.3 -15.6-22.4-0.8
2018-Feb-17 08:00N 48°54' W 067°48'7 7.2 300 / 181019.9 -15.7-23.1-0.8
2018-Feb-17 07:00N 48°48' W 067°54'4 4.0 290 / 231018.8 -15.4-22.4-0.8
2018-Feb-17 06:00N 48°48' W 068°00'4 4.0 290 / 251017.3 -14.6-21.6-0.7
2018-Feb-17 05:00N 48°48' W 068°06'7 7.2 280 / 241016.0 -13.7-21.4-0.6
2018-Feb-17 04:00N 48°42' W 068°12'4 4.0 280 / 241014.8 -13.0-19.9-0.4
2018-Feb-17 03:00N 48°42' W 068°18'8 7.9 290 / 261013.2 -12.5-19.0-0.5
2018-Feb-17 02:00N 48°42' W 068°30'4 4.0 290 / 251012.2 -12.0-19.6-0.6
2018-Feb-17 01:00N 48°42' W 068°36'0 0.0 300 / 141010.7 -10.5-18.1-0.3
2018-Feb-17 00:00N 48°42' W 068°36'0 0.0 290 / 251008.4 -10.2-17.6-0.2
2018-Feb-16 23:00N 48°42' W 068°36'0 0.0 290 / 211006.7 -8.3-15.7-0.2
2018-Feb-16 22:00N 48°42' W 068°36'0 0.0 290 / 241005.0 -8.0-16.5-0.1
2018-Feb-16 21:00N 48°42' W 068°36'10 9.9 280 / 201004.0 -6.7-16.0-0.1
2018-Feb-16 20:00N 48°36' W 068°48'7 7.2 300 / 261002.9 -6.0-14.3 0.2
2018-Feb-16 19:00N 48°30' W 068°54'0 0.0 310 / 151001.7 -2.2-10.8 0.3
2018-Feb-16 18:00N 48°30' W 068°54'0 0.0 290 / 181001.8 -3.9-12.4
2018-Feb-16 17:00N 48°30' W 068°54'0 0.0 280 / 141001.2 -4.4-10.3 0.3
2018-Feb-16 16:00N 48°30' W 068°54'0 0.0 290 / 171001.2 -4.4-9.4 0.3
2018-Feb-16 15:00N 48°30' W 068°54'0 0.0 300 / 211001.0 -3.8-9.3 0.3
2018-Feb-16 13:00N 48°30' W 068°54'1716.9 290 / 261001.2 -2.4-7.4 0.5
2018-Feb-16 12:00N 48°18' W 069°12'1414.4 260 / 261001.0 -2.8-5.5 0.7
2018-Feb-16 11:00N 48°06' W 069°24'1312.7 270 / 26999.8 -1.7-5.3 0.8
2018-Feb-16 10:00N 47°54' W 069°30'0 0.0 300 / 9999.9 0.8-3.4
2018-Feb-16 09:00N 47°54' W 069°30'0 0.0 290 / 18998.6 1.3-2.8
2018-Feb-16 08:00N 47°54' W 069°30'0 0.0 310 / 9998.0 1.2-0.8
2018-Feb-16 07:00N 47°54' W 069°30'0 0.0 210 / 16996.7 0.1-0.3
2018-Feb-16 06:00N 47°54' W 069°30'0 0.0 200 / 11996.5 -0.3-0.4
2018-Feb-16 05:00N 47°54' W 069°30'0 0.0 220 / 7996.7 -1.1-1.2
2018-Feb-16 04:00N 47°54' W 069°30'0 0.0 220 / 6996.5 -1.4-1.5
2018-Feb-16 03:00N 47°54' W 069°30'0 0.0 150 / 2996.8 -0.4-0.5
2018-Feb-16 02:00N 47°54' W 069°30'0 0.0 010 / 4997.2 -1.0-1.1
2018-Feb-16 01:00N 47°54' W 069°30'0 0.0 360 / 7997.7 -0.9-1.1
2018-Feb-16 00:00N 47°54' W 069°30'0 0.0 070 / 2998.5 -0.1-0.2
2018-Feb-15 23:00N 47°54' W 069°30'0 0.0 050 / 2999.2 -0.1-0.3
2018-Feb-15 22:00N 47°54' W 069°30'0 0.0 050 / 8999.8 -0.1-0.5
2018-Feb-15 21:00N 47°54' W 069°30'0 0.0 050 / 81000.5 0.1-0.6
2018-Feb-15 20:00N 47°54' W 069°30'0 0.0 110 / 21001.7 0.5-1.0
2018-Feb-15 19:00N 47°54' W 069°30'0 0.0 200 / 81002.4 -0.3-1.8
2018-Feb-15 18:00N 47°54' W 069°30'0 0.0 220 / 101003.8 -0.4-1.7
2018-Feb-15 17:00N 47°54' W 069°30'0 0.0 220 / 101005.0 -0.1-1.7
2018-Feb-15 16:00N 47°54' W 069°30'0 0.0 210 / 91007.2 -0.2-1.8
2018-Feb-15 15:00N 47°54' W 069°30'0 0.0 200 / 111008.1 -0.5-2.5
2018-Feb-15 14:00N 47°54' W 069°30'0 0.0 210 / 121008.4 -0.5-2.3
2018-Feb-15 13:00N 47°54' W 069°30'0 0.0 200 / 101008.7 -0.5-2.3
2018-Feb-15 12:00N 47°54' W 069°30'0 0.0 200 / 111008.9 -0.7-2.3
2018-Feb-15 11:00N 47°54' W 069°30'0 0.0 200 / 71009.2 -0.3-1.7
2018-Feb-15 10:00N 47°54' W 069°30'0 0.0 230 / 21009.4 -0.0-1.4
2018-Feb-15 09:00N 47°54' W 069°30'0 0.0 230 / 31009.5 0.1-1.2
2018-Feb-15 08:00N 47°54' W 069°30'0 0.0 210 / 51008.9 0.3-1.2
2018-Feb-15 07:00N 47°54' W 069°30'0 0.0 210 / 61009.5 0.6-1.2
2018-Feb-15 06:00N 47°54' W 069°30'0 0.0 210 / 51009.9 0.1-1.3
2018-Feb-15 05:00N 47°54' W 069°30'1212.0 220 / 121009.6 0.2-1.2-0.2
2018-Feb-15 04:00N 48°06' W 069°30'1010.0 210 / 111009.9 -0.5-2.2-0.1
2018-Feb-15 03:00N 48°12' W 069°18'1717.0 220 / 101009.6 -0.8-2.7-0.0
2018-Feb-15 02:00N 48°24' W 069°00'1414.4 200 / 121009.9 -0.4-2.8 0.1
2018-Feb-15 01:00N 48°36' W 068°48'10 9.9 220 / 131010.0 -0.4-3.2-0.1
2018-Feb-15 00:00N 48°42' W 068°36'4 2.0 240 / 171009.7 -0.6-2.4
2018-Feb-14 22:00N 48°42' W 068°30'4 4.0 240 / 291008.0 -0.4-4.3-0.4
2018-Feb-14 21:00N 48°42' W 068°24'0 0.0 240 / 281008.6 -0.9-5.3-0.8
2018-Feb-14 20:00N 48°42' W 068°24'0 0.0 230 / 251009.5 -1.7-6.1-0.8
2018-Feb-14 19:00N 48°42' W 068°24'0 0.0 230 / 251010.0 -1.8-5.8-0.8
2018-Feb-14 18:00N 48°42' W 068°24'0 0.0 240 / 271010.4 -2.3-6.3
2018-Feb-14 17:00N 48°42' W 068°24'0 0.0 230 / 291011.4 -2.7-6.9-0.8
2018-Feb-14 16:00N 48°42' W 068°24'4 4.0 230 / 271012.1 -2.8-7.1-0.8
2018-Feb-14 15:00N 48°42' W 068°30'0 0.0 230 / 321012.5 -2.7-8.2-0.8
2018-Feb-14 14:00N 48°42' W 068°30'0 0.0 230 / 331013.1 -2.8-9.2-0.8
2018-Feb-14 13:00N 48°42' W 068°30'4 4.0 210 / 291014.2 -3.2-10.6-0.8
2018-Feb-14 12:00N 48°42' W 068°36'0 0.0 230 / 241013.6 -3.4-10.4-0.8
2018-Feb-14 11:00N 48°42' W 068°36'7 7.2 210 / 361014.1 -3.6-11.5-0.7
2018-Feb-14 10:00N 48°36' W 068°42'0 0.0 210 / 321015.3 -4.5-11.8-0.7
2018-Feb-14 09:00N 48°36' W 068°42'0 0.0 200 / 261016.1 -4.6-11.6-0.7
2018-Feb-14 08:00N 48°36' W 068°42'7 7.2 220 / 371017.4 -5.3-12.1-0.7
2018-Feb-14 07:00N 48°42' W 068°36'8 7.9 210 / 341019.7 -5.5-11.9-0.9
2018-Feb-14 06:00N 48°42' W 068°24'1313.3 190 / 261021.3 -8.3-14.6-0.8
2018-Feb-14 05:00N 48°48' W 068°06'1313.3 210 / 311022.2 -8.0-14.8-0.8
2018-Feb-14 04:00N 48°54' W 067°48'8 7.9 200 / 231025.4 -8.7-14.9-0.9
2018-Feb-14 03:00N 48°54' W 067°36'0 0.0 180 / 141028.2 -11.6-18.2-0.9
2018-Feb-14 02:00N 48°54' W 067°36'0 0.0 190 / 141030.0 -11.4-19.2-0.9
2018-Feb-14 01:00N 48°54' W 067°36'0 0.0 200 / 121031.6 -12.0-19.7-1.1
2018-Feb-14 00:00N 48°54' W 067°36'4 3.9 180 / 151031.7 -12.2-18.5-1.0
2018-Feb-13 23:00N 48°54' W 067°42'7 7.2 210 / 231032.7 -10.3-17.0-0.9
2018-Feb-13 22:00N 49°00' W 067°36'0 0.0 200 / 211034.0 -11.5-17.4-0.8
2018-Feb-13 21:00N 49°00' W 067°36'0 0.0 200 / 211034.7 -11.8-18.0-0.9
2018-Feb-13 20:00N 49°00' W 067°36'1313.2 220 / 251035.1 -12.2-17.8-0.9
2018-Feb-13 19:00N 49°06' W 067°54'1414.4 240 / 131036.4 -12.5-18.8-0.9
2018-Feb-13 18:00N 48°54' W 067°42'4 3.9 230 / 191037.7 -14.5-20.9-1.0
2018-Feb-13 17:00N 48°54' W 067°36'6 6.0 230 / 161039.0 -15.2-21.1-0.9
2018-Feb-13 16:00N 48°48' W 067°36'6 6.0 280 / 111040.3 -15.1-21.7
2018-Feb-13 15:00N 48°54' W 067°36'4 3.9 280 / 141041.2 -16.4-22.2-1.0
2018-Feb-13 14:00N 48°54' W 067°42'10 9.9 270 / 151041.9 -16.1-22.3-1.0
2018-Feb-13 13:00N 48°48' W 067°54'   280 / 201041.5 -17.3-23.3-0.8

Dump ship's entire track history